sensor_id;sensor_type;location;lat;lon;timestamp;temperature;humidity
22562;DHT22;11447;50.562;8.504;2022-09-23T00:00:35;9.60;99.90
22562;DHT22;11447;50.562;8.504;2022-09-23T00:03:04;9.50;99.90
22562;DHT22;11447;50.562;8.504;2022-09-23T00:05:31;9.50;99.90
22562;DHT22;11447;50.562;8.504;2022-09-23T00:07:58;9.50;99.90
22562;DHT22;11447;50.562;8.504;2022-09-23T00:10:25;9.50;99.90
22562;DHT22;11447;50.562;8.504;2022-09-23T00:12:53;9.60;99.90
22562;DHT22;11447;50.562;8.504;2022-09-23T00:21:03;9.30;99.90
22562;DHT22;11447;50.562;8.504;2022-09-23T00:23:31;9.20;99.90
22562;DHT22;11447;50.562;8.504;2022-09-23T00:25:58;9.10;99.90
22562;DHT22;11447;50.562;8.504;2022-09-23T00:28:28;9.20;99.90
22562;DHT22;11447;50.562;8.504;2022-09-23T00:30:54;9.20;99.90
22562;DHT22;11447;50.562;8.504;2022-09-23T00:33:23;9.20;99.90
22562;DHT22;11447;50.562;8.504;2022-09-23T00:35:50;9.20;99.90
22562;DHT22;11447;50.562;8.504;2022-09-23T00:38:19;9.20;99.90
22562;DHT22;11447;50.562;8.504;2022-09-23T00:40:45;9.20;99.90
22562;DHT22;11447;50.562;8.504;2022-09-23T00:43:12;9.00;99.90
22562;DHT22;11447;50.562;8.504;2022-09-23T00:45:45;9.00;99.90
22562;DHT22;11447;50.562;8.504;2022-09-23T00:48:15;9.00;99.90
22562;DHT22;11447;50.562;8.504;2022-09-23T00:50:44;9.00;99.90
22562;DHT22;11447;50.562;8.504;2022-09-23T00:53:14;9.10;99.90
22562;DHT22;11447;50.562;8.504;2022-09-23T00:55:45;9.00;99.90
22562;DHT22;11447;50.562;8.504;2022-09-23T00:58:14;9.00;99.90
22562;DHT22;11447;50.562;8.504;2022-09-23T01:00:43;9.00;99.90
22562;DHT22;11447;50.562;8.504;2022-09-23T01:03:12;9.00;99.90
22562;DHT22;11447;50.562;8.504;2022-09-23T01:05:39;9.00;99.90
22562;DHT22;11447;50.562;8.504;2022-09-23T01:08:08;9.00;99.90
22562;DHT22;11447;50.562;8.504;2022-09-23T01:10:39;9.00;99.90
22562;DHT22;11447;50.562;8.504;2022-09-23T01:13:28;9.00;99.90
22562;DHT22;11447;50.562;8.504;2022-09-23T01:16:05;9.00;99.90
22562;DHT22;11447;50.562;8.504;2022-09-23T01:18:41;9.00;99.90
22562;DHT22;11447;50.562;8.504;2022-09-23T01:31:36;8.70;99.90
22562;DHT22;11447;50.562;8.504;2022-09-23T01:34:13;8.70;99.90
22562;DHT22;11447;50.562;8.504;2022-09-23T01:36:52;8.70;99.90
22562;DHT22;11447;50.562;8.504;2022-09-23T01:39:23;8.70;99.90
22562;DHT22;11447;50.562;8.504;2022-09-23T01:44:45;8.70;99.90
22562;DHT22;11447;50.562;8.504;2022-09-23T01:47:14;8.70;99.90
22562;DHT22;11447;50.562;8.504;2022-09-23T01:49:49;8.60;99.90
22562;DHT22;11447;50.562;8.504;2022-09-23T01:52:30;8.60;99.90
22562;DHT22;11447;50.562;8.504;2022-09-23T01:55:11;8.60;99.90
22562;DHT22;11447;50.562;8.504;2022-09-23T01:57:40;8.60;99.90
22562;DHT22;11447;50.562;8.504;2022-09-23T02:00:15;8.60;99.90
22562;DHT22;11447;50.562;8.504;2022-09-23T02:02:53;8.60;99.90
22562;DHT22;11447;50.562;8.504;2022-09-23T02:05:24;8.60;99.90
22562;DHT22;11447;50.562;8.504;2022-09-23T02:07:57;8.60;99.90
22562;DHT22;11447;50.562;8.504;2022-09-23T02:12:58;8.60;99.90
22562;DHT22;11447;50.562;8.504;2022-09-23T02:15:32;8.60;99.90
22562;DHT22;11447;50.562;8.504;2022-09-23T02:18:13;8.50;99.90
22562;DHT22;11447;50.562;8.504;2022-09-23T02:20:41;8.40;99.90
22562;DHT22;11447;50.562;8.504;2022-09-23T02:23:13;8.40;99.90
22562;DHT22;11447;50.562;8.504;2022-09-23T02:25:53;8.30;99.90
22562;DHT22;11447;50.562;8.504;2022-09-23T02:30:50;8.20;99.90
22562;DHT22;11447;50.562;8.504;2022-09-23T02:33:29;8.20;99.90
22562;DHT22;11447;50.562;8.504;2022-09-23T02:36:00;8.20;99.90
22562;DHT22;11447;50.562;8.504;2022-09-23T02:41:09;8.00;99.90
22562;DHT22;11447;50.562;8.504;2022-09-23T02:46:43;8.10;99.90
22562;DHT22;11447;50.562;8.504;2022-09-23T02:49:19;8.10;99.90
22562;DHT22;11447;50.562;8.504;2022-09-23T02:51:46;8.10;99.90
22562;DHT22;11447;50.562;8.504;2022-09-23T02:54:15;8.10;99.90
22562;DHT22;11447;50.562;8.504;2022-09-23T02:56:42;8.10;99.90
22562;DHT22;11447;50.562;8.504;2022-09-23T02:59:09;8.10;99.90
22562;DHT22;11447;50.562;8.504;2022-09-23T03:09:32;7.90;99.90
22562;DHT22;11447;50.562;8.504;2022-09-23T03:17:29;7.90;99.90
22562;DHT22;11447;50.562;8.504;2022-09-23T03:20:02;7.90;99.90
22562;DHT22;11447;50.562;8.504;2022-09-23T03:22:31;7.90;99.90
22562;DHT22;11447;50.562;8.504;2022-09-23T03:25:02;7.90;99.90
22562;DHT22;11447;50.562;8.504;2022-09-23T03:27:31;7.90;99.90
22562;DHT22;11447;50.562;8.504;2022-09-23T03:29:59;8.00;99.90
22562;DHT22;11447;50.562;8.504;2022-09-23T03:32:28;8.00;99.90
22562;DHT22;11447;50.562;8.504;2022-09-23T03:34:58;7.90;99.90
22562;DHT22;11447;50.562;8.504;2022-09-23T03:42:39;7.70;99.90
22562;DHT22;11447;50.562;8.504;2022-09-23T03:45:08;7.80;99.90
22562;DHT22;11447;50.562;8.504;2022-09-23T03:47:35;7.80;99.90
22562;DHT22;11447;50.562;8.504;2022-09-23T03:50:05;7.80;99.90
22562;DHT22;11447;50.562;8.504;2022-09-23T03:52:31;7.70;99.90
22562;DHT22;11447;50.562;8.504;2022-09-23T03:55:00;7.70;99.90
22562;DHT22;11447;50.562;8.504;2022-09-23T03:57:27;7.60;99.90
22562;DHT22;11447;50.562;8.504;2022-09-23T03:59:56;7.70;99.90
22562;DHT22;11447;50.562;8.504;2022-09-23T04:02:22;7.70;99.90
22562;DHT22;11447;50.562;8.504;2022-09-23T04:04:49;7.70;99.90
22562;DHT22;11447;50.562;8.504;2022-09-23T04:07:18;7.70;99.90
22562;DHT22;11447;50.562;8.504;2022-09-23T04:09:44;7.80;99.90
22562;DHT22;11447;50.562;8.504;2022-09-23T04:12:14;7.70;99.90
22562;DHT22;11447;50.562;8.504;2022-09-23T04:14:43;7.70;99.90
22562;DHT22;11447;50.562;8.504;2022-09-23T04:17:12;7.70;99.90
22562;DHT22;11447;50.562;8.504;2022-09-23T04:19:39;7.70;99.90
22562;DHT22;11447;50.562;8.504;2022-09-23T04:22:06;7.80;99.90
22562;DHT22;11447;50.562;8.504;2022-09-23T04:24:36;7.80;99.90
22562;DHT22;11447;50.562;8.504;2022-09-23T04:27:02;7.80;99.90
22562;DHT22;11447;50.562;8.504;2022-09-23T04:29:29;7.80;99.90
22562;DHT22;11447;50.562;8.504;2022-09-23T04:31:58;7.70;99.90
22562;DHT22;11447;50.562;8.504;2022-09-23T04:34:24;7.80;99.90
22562;DHT22;11447;50.562;8.504;2022-09-23T04:36:51;7.60;99.90
22562;DHT22;11447;50.562;8.504;2022-09-23T04:39:20;7.60;99.90
22562;DHT22;11447;50.562;8.504;2022-09-23T04:41:46;7.60;99.90
22562;DHT22;11447;50.562;8.504;2022-09-23T04:44:15;7.60;99.90
22562;DHT22;11447;50.562;8.504;2022-09-23T04:46:42;7.60;99.90
22562;DHT22;11447;50.562;8.504;2022-09-23T04:49:13;7.60;99.90
22562;DHT22;11447;50.562;8.504;2022-09-23T04:51:39;7.60;99.90
22562;DHT22;11447;50.562;8.504;2022-09-23T04:54:09;7.60;99.90
22562;DHT22;11447;50.562;8.504;2022-09-23T04:56:36;7.60;99.90
22562;DHT22;11447;50.562;8.504;2022-09-23T04:59:03;7.60;99.90
22562;DHT22;11447;50.562;8.504;2022-09-23T05:01:30;7.60;99.90
22562;DHT22;11447;50.562;8.504;2022-09-23T05:03:58;7.60;99.90
22562;DHT22;11447;50.562;8.504;2022-09-23T05:06:28;7.60;99.90
22562;DHT22;11447;50.562;8.504;2022-09-23T05:08:55;7.70;99.90
22562;DHT22;11447;50.562;8.504;2022-09-23T05:11:22;7.70;99.90
22562;DHT22;11447;50.562;8.504;2022-09-23T05:13:50;7.60;99.90
22562;DHT22;11447;50.562;8.504;2022-09-23T05:16:17;7.60;99.90
22562;DHT22;11447;50.562;8.504;2022-09-23T05:18:44;7.60;99.90
22562;DHT22;11447;50.562;8.504;2022-09-23T05:21:16;7.60;99.90
22562;DHT22;11447;50.562;8.504;2022-09-23T05:23:46;7.60;99.90
22562;DHT22;11447;50.562;8.504;2022-09-23T05:26:13;7.70;99.90
22562;DHT22;11447;50.562;8.504;2022-09-23T05:28:40;7.60;99.90
22562;DHT22;11447;50.562;8.504;2022-09-23T05:31:11;7.70;99.90
22562;DHT22;11447;50.562;8.504;2022-09-23T05:33:46;7.70;99.90
22562;DHT22;11447;50.562;8.504;2022-09-23T05:36:14;7.70;99.90
22562;DHT22;11447;50.562;8.504;2022-09-23T05:38:42;7.70;99.90
22562;DHT22;11447;50.562;8.504;2022-09-23T05:41:11;7.70;99.90
22562;DHT22;11447;50.562;8.504;2022-09-23T05:43:38;7.70;99.90
22562;DHT22;11447;50.562;8.504;2022-09-23T05:48:35;7.70;99.90
22562;DHT22;11447;50.562;8.504;2022-09-23T05:51:02;7.60;99.90
22562;DHT22;11447;50.562;8.504;2022-09-23T05:53:29;7.60;99.90
22562;DHT22;11447;50.562;8.504;2022-09-23T05:55:56;7.60;99.90
22562;DHT22;11447;50.562;8.504;2022-09-23T05:58:23;7.60;99.90
22562;DHT22;11447;50.562;8.504;2022-09-23T06:00:49;7.60;99.90
22562;DHT22;11447;50.562;8.504;2022-09-23T06:03:17;7.70;99.90
22562;DHT22;11447;50.562;8.504;2022-09-23T06:05:44;7.70;99.90
22562;DHT22;11447;50.562;8.504;2022-09-23T06:08:11;7.70;99.90
22562;DHT22;11447;50.562;8.504;2022-09-23T06:10:39;7.80;99.90
22562;DHT22;11447;50.562;8.504;2022-09-23T06:13:05;7.80;99.90
22562;DHT22;11447;50.562;8.504;2022-09-23T06:15:32;7.80;99.90
22562;DHT22;11447;50.562;8.504;2022-09-23T06:17:59;7.80;99.90
22562;DHT22;11447;50.562;8.504;2022-09-23T06:20:26;7.80;99.90
22562;DHT22;11447;50.562;8.504;2022-09-23T06:22:54;8.00;99.90
22562;DHT22;11447;50.562;8.504;2022-09-23T06:25:28;8.00;99.90
22562;DHT22;11447;50.562;8.504;2022-09-23T06:27:54;8.00;99.90
22562;DHT22;11447;50.562;8.504;2022-09-23T06:30:21;8.00;99.90
22562;DHT22;11447;50.562;8.504;2022-09-23T06:32:52;8.00;99.90
22562;DHT22;11447;50.562;8.504;2022-09-23T06:35:22;7.90;99.90
22562;DHT22;11447;50.562;8.504;2022-09-23T06:37:53;7.90;99.90
22562;DHT22;11447;50.562;8.504;2022-09-23T06:40:20;8.00;99.90
22562;DHT22;11447;50.562;8.504;2022-09-23T06:42:47;8.00;99.90
22562;DHT22;11447;50.562;8.504;2022-09-23T06:45:17;7.90;99.90
22562;DHT22;11447;50.562;8.504;2022-09-23T06:47:44;7.90;99.90
22562;DHT22;11447;50.562;8.504;2022-09-23T06:50:11;7.90;99.90
22562;DHT22;11447;50.562;8.504;2022-09-23T06:52:40;7.90;99.90
22562;DHT22;11447;50.562;8.504;2022-09-23T06:55:07;7.90;99.90
22562;DHT22;11447;50.562;8.504;2022-09-23T06:57:35;7.90;99.90
22562;DHT22;11447;50.562;8.504;2022-09-23T07:00:04;7.90;99.90
22562;DHT22;11447;50.562;8.504;2022-09-23T07:02:30;8.00;99.90
22562;DHT22;11447;50.562;8.504;2022-09-23T07:04:57;8.10;99.90
22562;DHT22;11447;50.562;8.504;2022-09-23T07:07:27;8.20;99.90
22562;DHT22;11447;50.562;8.504;2022-09-23T07:09:57;8.30;99.90
22562;DHT22;11447;50.562;8.504;2022-09-23T07:12:26;8.30;99.90
22562;DHT22;11447;50.562;8.504;2022-09-23T07:14:53;8.50;99.90
22562;DHT22;11447;50.562;8.504;2022-09-23T07:17:19;8.50;99.90
22562;DHT22;11447;50.562;8.504;2022-09-23T07:19:46;8.50;99.90
22562;DHT22;11447;50.562;8.504;2022-09-23T07:22:12;8.40;99.90
22562;DHT22;11447;50.562;8.504;2022-09-23T07:24:41;8.60;99.90
22562;DHT22;11447;50.562;8.504;2022-09-23T07:27:09;8.50;99.90
22562;DHT22;11447;50.562;8.504;2022-09-23T07:29:35;8.60;99.90
22562;DHT22;11447;50.562;8.504;2022-09-23T07:32:13;8.70;99.90
22562;DHT22;11447;50.562;8.504;2022-09-23T07:34:40;8.70;99.90
22562;DHT22;11447;50.562;8.504;2022-09-23T07:37:08;8.70;99.90
22562;DHT22;11447;50.562;8.504;2022-09-23T07:39:38;8.70;99.90
22562;DHT22;11447;50.562;8.504;2022-09-23T07:42:07;9.30;99.90
22562;DHT22;11447;50.562;8.504;2022-09-23T07:44:37;10.60;99.90
22562;DHT22;11447;50.562;8.504;2022-09-23T07:47:03;11.70;99.90
22562;DHT22;11447;50.562;8.504;2022-09-23T07:49:30;12.50;99.90
22562;DHT22;11447;50.562;8.504;2022-09-23T07:51:59;12.80;99.90
22562;DHT22;11447;50.562;8.504;2022-09-23T07:54:25;13.30;99.90
22562;DHT22;11447;50.562;8.504;2022-09-23T07:56:55;14.10;99.90
22562;DHT22;11447;50.562;8.504;2022-09-23T07:59:24;15.10;99.90
22562;DHT22;11447;50.562;8.504;2022-09-23T08:01:52;15.80;99.20
22562;DHT22;11447;50.562;8.504;2022-09-23T08:04:23;16.40;98.00
22562;DHT22;11447;50.562;8.504;2022-09-23T08:06:54;16.60;95.20
22562;DHT22;11447;50.562;8.504;2022-09-23T08:09:24;16.60;95.20
22562;DHT22;11447;50.562;8.504;2022-09-23T08:11:53;15.70;95.20
22562;DHT22;11447;50.562;8.504;2022-09-23T08:14:20;14.70;95.60
22562;DHT22;11447;50.562;8.504;2022-09-23T08:16:47;14.00;96.80
22562;DHT22;11447;50.562;8.504;2022-09-23T08:19:14;13.50;98.00
22562;DHT22;11447;50.562;8.504;2022-09-23T08:21:45;13.10;99.10
22562;DHT22;11447;50.562;8.504;2022-09-23T08:24:13;12.80;99.90
22562;DHT22;11447;50.562;8.504;2022-09-23T08:26:41;12.60;99.90
22562;DHT22;11447;50.562;8.504;2022-09-23T08:29:10;12.50;99.90
22562;DHT22;11447;50.562;8.504;2022-09-23T08:31:39;12.50;99.90
22562;DHT22;11447;50.562;8.504;2022-09-23T08:34:06;12.40;99.90
22562;DHT22;11447;50.562;8.504;2022-09-23T08:36:33;12.30;99.90
22562;DHT22;11447;50.562;8.504;2022-09-23T08:39:00;12.20;99.90
22562;DHT22;11447;50.562;8.504;2022-09-23T08:43:57;12.10;99.90
22562;DHT22;11447;50.562;8.504;2022-09-23T08:46:25;12.20;99.90
22562;DHT22;11447;50.562;8.504;2022-09-23T08:48:55;12.20;99.90
22562;DHT22;11447;50.562;8.504;2022-09-23T08:51:23;12.30;99.90
22562;DHT22;11447;50.562;8.504;2022-09-23T08:53:53;12.50;99.90
22562;DHT22;11447;50.562;8.504;2022-09-23T08:56:21;12.50;99.90
22562;DHT22;11447;50.562;8.504;2022-09-23T08:58:57;12.40;99.90
22562;DHT22;11447;50.562;8.504;2022-09-23T09:01:42;12.30;99.90
22562;DHT22;11447;50.562;8.504;2022-09-23T09:07:32;12.30;99.90
22562;DHT22;11447;50.562;8.504;2022-09-23T09:10:05;12.60;99.90
22562;DHT22;11447;50.562;8.504;2022-09-23T09:12:45;12.80;99.90
22562;DHT22;11447;50.562;8.504;2022-09-23T09:15:22;12.90;99.90
22562;DHT22;11447;50.562;8.504;2022-09-23T09:18:00;13.10;99.90
22562;DHT22;11447;50.562;8.504;2022-09-23T09:20:46;13.10;99.90
22562;DHT22;11447;50.562;8.504;2022-09-23T09:25:47;13.20;99.90
22562;DHT22;11447;50.562;8.504;2022-09-23T09:28:22;13.00;99.90
22562;DHT22;11447;50.562;8.504;2022-09-23T09:30:51;13.10;99.90
22562;DHT22;11447;50.562;8.504;2022-09-23T09:33:22;13.10;99.90
22562;DHT22;11447;50.562;8.504;2022-09-23T09:38:26;13.30;99.90
22562;DHT22;11447;50.562;8.504;2022-09-23T09:40:56;13.30;99.90
22562;DHT22;11447;50.562;8.504;2022-09-23T09:43:30;13.40;99.90
22562;DHT22;11447;50.562;8.504;2022-09-23T09:48:46;13.60;99.90
22562;DHT22;11447;50.562;8.504;2022-09-23T09:51:23;13.60;99.90
22562;DHT22;11447;50.562;8.504;2022-09-23T09:53:50;13.80;99.90
22562;DHT22;11447;50.562;8.504;2022-09-23T09:56:21;13.90;99.90
22562;DHT22;11447;50.562;8.504;2022-09-23T10:03:45;14.30;99.90
22562;DHT22;11447;50.562;8.504;2022-09-23T10:06:19;14.30;99.90
22562;DHT22;11447;50.562;8.504;2022-09-23T10:08:48;14.40;99.90
22562;DHT22;11447;50.562;8.504;2022-09-23T10:11:16;14.40;99.90
22562;DHT22;11447;50.562;8.504;2022-09-23T10:16:28;14.50;99.90
22562;DHT22;11447;50.562;8.504;2022-09-23T10:18:58;14.60;99.80
22562;DHT22;11447;50.562;8.504;2022-09-23T10:21:30;14.60;99.40
22562;DHT22;11447;50.562;8.504;2022-09-23T10:23:59;14.60;99.20
22562;DHT22;11447;50.562;8.504;2022-09-23T10:26:40;14.60;99.20
22562;DHT22;11447;50.562;8.504;2022-09-23T10:29:22;14.80;99.60
22562;DHT22;11447;50.562;8.504;2022-09-23T10:31:50;14.90;99.20
22562;DHT22;11447;50.562;8.504;2022-09-23T10:34:36;15.00;98.90
22562;DHT22;11447;50.562;8.504;2022-09-23T10:37:13;15.10;98.20
22562;DHT22;11447;50.562;8.504;2022-09-23T10:39:42;15.20;98.10
22562;DHT22;11447;50.562;8.504;2022-09-23T10:45:32;15.30;97.60
22562;DHT22;11447;50.562;8.504;2022-09-23T10:48:21;15.40;97.20
22562;DHT22;11447;50.562;8.504;2022-09-23T10:50:52;15.40;96.80
22562;DHT22;11447;50.562;8.504;2022-09-23T11:06:34;15.90;95.70
22562;DHT22;11447;50.562;8.504;2022-09-23T11:11:47;16.00;95.30
22562;DHT22;11447;50.562;8.504;2022-09-23T11:22:21;16.40;93.90
22562;DHT22;11447;50.562;8.504;2022-09-23T11:25:01;16.40;94.30
22562;DHT22;11447;50.562;8.504;2022-09-23T11:27:44;16.50;94.20
22562;DHT22;11447;50.562;8.504;2022-09-23T11:30:19;16.60;93.50
22562;DHT22;11447;50.562;8.504;2022-09-23T11:38:11;16.60;92.70
22562;DHT22;11447;50.562;8.504;2022-09-23T11:40:41;16.50;93.30
22562;DHT22;11447;50.562;8.504;2022-09-23T11:43:14;16.60;93.20
22562;DHT22;11447;50.562;8.504;2022-09-23T11:45:49;16.80;93.10
22562;DHT22;11447;50.562;8.504;2022-09-23T11:48:18;16.90;92.90
22562;DHT22;11447;50.562;8.504;2022-09-23T11:53:27;17.00;92.50
22562;DHT22;11447;50.562;8.504;2022-09-23T11:56:02;17.10;91.60
22562;DHT22;11447;50.562;8.504;2022-09-23T11:58:36;17.10;91.50
22562;DHT22;11447;50.562;8.504;2022-09-23T12:01:15;17.10;91.80
22562;DHT22;11447;50.562;8.504;2022-09-23T12:03:59;17.10;91.60
22562;DHT22;11447;50.562;8.504;2022-09-23T12:06:46;17.20;92.00
22562;DHT22;11447;50.562;8.504;2022-09-23T12:09:36;17.20;91.50
22562;DHT22;11447;50.562;8.504;2022-09-23T12:18:05;17.40;91.30
22562;DHT22;11447;50.562;8.504;2022-09-23T12:25:56;17.70;90.80
22562;DHT22;11447;50.562;8.504;2022-09-23T12:28:27;17.80;90.30
22562;DHT22;11447;50.562;8.504;2022-09-23T12:30:55;17.80;90.30
22562;DHT22;11447;50.562;8.504;2022-09-23T12:33:26;17.90;89.00
22562;DHT22;11447;50.562;8.504;2022-09-23T12:35:54;17.90;89.40
22562;DHT22;11447;50.562;8.504;2022-09-23T12:38:32;17.90;90.00
22562;DHT22;11447;50.562;8.504;2022-09-23T12:40:58;17.90;88.40
22562;DHT22;11447;50.562;8.504;2022-09-23T12:43:32;18.00;88.70
22562;DHT22;11447;50.562;8.504;2022-09-23T12:46:15;18.00;89.40
22562;DHT22;11447;50.562;8.504;2022-09-23T12:48:46;18.00;88.40
22562;DHT22;11447;50.562;8.504;2022-09-23T12:51:14;18.00;86.40
22562;DHT22;11447;50.562;8.504;2022-09-23T13:03:44;17.90;87.20
22562;DHT22;11447;50.562;8.504;2022-09-23T13:06:33;17.90;87.30
22562;DHT22;11447;50.562;8.504;2022-09-23T13:09:07;17.90;87.10
22562;DHT22;11447;50.562;8.504;2022-09-23T13:11:37;18.00;87.40
22562;DHT22;11447;50.562;8.504;2022-09-23T13:14:06;18.00;87.70
22562;DHT22;11447;50.562;8.504;2022-09-23T13:16:42;18.00;87.30
22562;DHT22;11447;50.562;8.504;2022-09-23T13:29:57;18.10;85.70
22562;DHT22;11447;50.562;8.504;2022-09-23T13:32:26;18.20;85.60
22562;DHT22;11447;50.562;8.504;2022-09-23T13:34:59;18.20;86.20
22562;DHT22;11447;50.562;8.504;2022-09-23T13:37:44;18.30;85.70
22562;DHT22;11447;50.562;8.504;2022-09-23T13:40:20;18.30;85.50
22562;DHT22;11447;50.562;8.504;2022-09-23T13:43:01;18.30;85.20
22562;DHT22;11447;50.562;8.504;2022-09-23T13:45:29;18.30;85.10
22562;DHT22;11447;50.562;8.504;2022-09-23T13:48:00;18.30;84.50
22562;DHT22;11447;50.562;8.504;2022-09-23T13:50:27;18.40;84.70
22562;DHT22;11447;50.562;8.504;2022-09-23T13:53:00;18.30;84.50
22562;DHT22;11447;50.562;8.504;2022-09-23T13:55:29;18.30;83.60
22562;DHT22;11447;50.562;8.504;2022-09-23T13:57:58;18.30;82.20
22562;DHT22;11447;50.562;8.504;2022-09-23T14:00:24;18.30;82.00
22562;DHT22;11447;50.562;8.504;2022-09-23T14:02:53;18.30;82.40
22562;DHT22;11447;50.562;8.504;2022-09-23T14:05:24;18.30;82.80
22562;DHT22;11447;50.562;8.504;2022-09-23T14:07:51;18.40;82.40
22562;DHT22;11447;50.562;8.504;2022-09-23T14:10:19;18.30;82.50
22562;DHT22;11447;50.562;8.504;2022-09-23T14:12:46;18.30;82.30
22562;DHT22;11447;50.562;8.504;2022-09-23T14:15:15;18.30;80.90
22562;DHT22;11447;50.562;8.504;2022-09-23T14:17:46;18.30;81.40
22562;DHT22;11447;50.562;8.504;2022-09-23T14:20:17;18.30;81.90
22562;DHT22;11447;50.562;8.504;2022-09-23T14:22:45;18.30;81.20
22562;DHT22;11447;50.562;8.504;2022-09-23T14:25:15;18.30;82.00
22562;DHT22;11447;50.562;8.504;2022-09-23T14:27:44;18.30;81.70
22562;DHT22;11447;50.562;8.504;2022-09-23T14:30:16;18.30;81.60
22562;DHT22;11447;50.562;8.504;2022-09-23T14:32:45;18.30;81.40
22562;DHT22;11447;50.562;8.504;2022-09-23T14:35:23;18.30;80.80
22562;DHT22;11447;50.562;8.504;2022-09-23T14:37:55;18.40;80.70
22562;DHT22;11447;50.562;8.504;2022-09-23T14:40:49;18.40;80.80
22562;DHT22;11447;50.562;8.504;2022-09-23T14:43:21;18.40;78.80
22562;DHT22;11447;50.562;8.504;2022-09-23T14:45:49;18.40;78.60
22562;DHT22;11447;50.562;8.504;2022-09-23T14:50:48;18.40;78.60
22562;DHT22;11447;50.562;8.504;2022-09-23T14:55:48;18.40;78.20
22562;DHT22;11447;50.562;8.504;2022-09-23T14:58:18;18.30;78.20
22562;DHT22;11447;50.562;8.504;2022-09-23T15:03:19;18.30;78.20
22562;DHT22;11447;50.562;8.504;2022-09-23T15:05:46;18.30;78.70
22562;DHT22;11447;50.562;8.504;2022-09-23T15:08:19;18.40;78.50
22562;DHT22;11447;50.562;8.504;2022-09-23T15:10:47;18.30;77.90
22562;DHT22;11447;50.562;8.504;2022-09-23T15:13:15;18.40;77.40
22562;DHT22;11447;50.562;8.504;2022-09-23T15:15:43;18.30;77.80
22562;DHT22;11447;50.562;8.504;2022-09-23T15:18:13;18.30;76.90
22562;DHT22;11447;50.562;8.504;2022-09-23T15:20:41;18.30;77.70
22562;DHT22;11447;50.562;8.504;2022-09-23T15:23:33;18.30;78.20
22562;DHT22;11447;50.562;8.504;2022-09-23T15:26:04;18.30;76.90
22562;DHT22;11447;50.562;8.504;2022-09-23T15:28:33;18.30;76.60
22562;DHT22;11447;50.562;8.504;2022-09-23T15:31:00;18.30;76.40
22562;DHT22;11447;50.562;8.504;2022-09-23T15:33:26;18.20;75.80
22562;DHT22;11447;50.562;8.504;2022-09-23T15:35:53;18.20;75.70
22562;DHT22;11447;50.562;8.504;2022-09-23T15:38:20;18.20;75.70
22562;DHT22;11447;50.562;8.504;2022-09-23T15:40:47;18.20;74.80
22562;DHT22;11447;50.562;8.504;2022-09-23T15:43:15;18.20;74.60
22562;DHT22;11447;50.562;8.504;2022-09-23T15:45:54;18.10;74.30
22562;DHT22;11447;50.562;8.504;2022-09-23T15:48:25;18.10;74.50
22562;DHT22;11447;50.562;8.504;2022-09-23T15:50:55;18.10;73.90
22562;DHT22;11447;50.562;8.504;2022-09-23T15:53:25;18.00;73.70
22562;DHT22;11447;50.562;8.504;2022-09-23T15:55:52;18.00;73.50
22562;DHT22;11447;50.562;8.504;2022-09-23T15:58:20;18.00;73.00
22562;DHT22;11447;50.562;8.504;2022-09-23T16:00:54;17.90;73.30
22562;DHT22;11447;50.562;8.504;2022-09-23T16:03:25;17.90;73.20
22562;DHT22;11447;50.562;8.504;2022-09-23T16:05:55;17.90;72.90
22562;DHT22;11447;50.562;8.504;2022-09-23T16:08:23;17.80;73.30
22562;DHT22;11447;50.562;8.504;2022-09-23T16:10:53;17.80;73.30
22562;DHT22;11447;50.562;8.504;2022-09-23T16:13:20;17.80;73.50
22562;DHT22;11447;50.562;8.504;2022-09-23T16:15:47;17.80;73.50
22562;DHT22;11447;50.562;8.504;2022-09-23T16:18:14;17.70;73.40
22562;DHT22;11447;50.562;8.504;2022-09-23T16:20:43;17.70;73.80
22562;DHT22;11447;50.562;8.504;2022-09-23T16:23:15;17.60;74.00
22562;DHT22;11447;50.562;8.504;2022-09-23T16:25:45;17.60;74.80
22562;DHT22;11447;50.562;8.504;2022-09-23T16:28:12;17.60;76.30
22562;DHT22;11447;50.562;8.504;2022-09-23T16:30:38;17.60;76.60
22562;DHT22;11447;50.562;8.504;2022-09-23T16:33:07;17.60;77.20
22562;DHT22;11447;50.562;8.504;2022-09-23T16:35:33;17.60;77.20
22562;DHT22;11447;50.562;8.504;2022-09-23T16:38:02;17.50;77.30
22562;DHT22;11447;50.562;8.504;2022-09-23T16:40:32;17.50;77.50
22562;DHT22;11447;50.562;8.504;2022-09-23T16:43:01;17.50;78.20
22562;DHT22;11447;50.562;8.504;2022-09-23T16:45:30;17.50;78.90
22562;DHT22;11447;50.562;8.504;2022-09-23T16:47:57;17.40;79.00
22562;DHT22;11447;50.562;8.504;2022-09-23T16:50:26;17.40;78.90
22562;DHT22;11447;50.562;8.504;2022-09-23T16:52:54;17.40;79.20
22562;DHT22;11447;50.562;8.504;2022-09-23T16:55:24;17.40;79.80
22562;DHT22;11447;50.562;8.504;2022-09-23T16:57:53;17.40;80.50
22562;DHT22;11447;50.562;8.504;2022-09-23T17:00:20;17.30;81.20
22562;DHT22;11447;50.562;8.504;2022-09-23T17:03:08;17.30;81.60
22562;DHT22;11447;50.562;8.504;2022-09-23T17:05:54;17.20;82.20
22562;DHT22;11447;50.562;8.504;2022-09-23T17:08:20;17.20;82.60
22562;DHT22;11447;50.562;8.504;2022-09-23T17:10:56;17.20;83.30
22562;DHT22;11447;50.562;8.504;2022-09-23T17:13:26;17.20;84.10
22562;DHT22;11447;50.562;8.504;2022-09-23T17:15:53;17.10;84.70
22562;DHT22;11447;50.562;8.504;2022-09-23T17:18:20;17.10;85.30
22562;DHT22;11447;50.562;8.504;2022-09-23T17:20:56;17.10;86.00
22562;DHT22;11447;50.562;8.504;2022-09-23T17:23:23;17.00;86.50
22562;DHT22;11447;50.562;8.504;2022-09-23T17:25:51;17.00;87.10
22562;DHT22;11447;50.562;8.504;2022-09-23T17:28:18;17.00;87.90
22562;DHT22;11447;50.562;8.504;2022-09-23T17:30:45;16.90;88.40
22562;DHT22;11447;50.562;8.504;2022-09-23T17:33:11;16.90;89.30
22562;DHT22;11447;50.562;8.504;2022-09-23T17:35:42;16.80;90.00
22562;DHT22;11447;50.562;8.504;2022-09-23T17:38:09;16.70;90.20
22562;DHT22;11447;50.562;8.504;2022-09-23T17:40:35;16.70;90.20
22562;DHT22;11447;50.562;8.504;2022-09-23T17:43:06;16.70;90.30
22562;DHT22;11447;50.562;8.504;2022-09-23T17:45:35;16.60;90.20
22562;DHT22;11447;50.562;8.504;2022-09-23T17:48:02;16.60;90.00
22562;DHT22;11447;50.562;8.504;2022-09-23T17:50:29;16.60;90.00
22562;DHT22;11447;50.562;8.504;2022-09-23T17:52:57;16.50;90.10
22562;DHT22;11447;50.562;8.504;2022-09-23T17:55:25;16.50;90.10
22562;DHT22;11447;50.562;8.504;2022-09-23T17:57:52;16.40;90.20
22562;DHT22;11447;50.562;8.504;2022-09-23T18:00:20;16.40;90.60
22562;DHT22;11447;50.562;8.504;2022-09-23T18:02:49;16.40;90.90
22562;DHT22;11447;50.562;8.504;2022-09-23T18:05:16;16.30;91.00
22562;DHT22;11447;50.562;8.504;2022-09-23T18:07:43;16.30;91.30
22562;DHT22;11447;50.562;8.504;2022-09-23T18:10:10;16.30;91.50
22562;DHT22;11447;50.562;8.504;2022-09-23T18:12:39;16.20;91.80
22562;DHT22;11447;50.562;8.504;2022-09-23T18:15:05;16.20;91.90
22562;DHT22;11447;50.562;8.504;2022-09-23T18:17:34;16.10;92.00
22562;DHT22;11447;50.562;8.504;2022-09-23T18:20:01;16.00;92.40
22562;DHT22;11447;50.562;8.504;2022-09-23T18:22:27;16.00;92.50